createdAt,value
2018-04-05T00:00:49.466Z,992.74
2018-04-05T00:01:49.447Z,992.73
2018-04-05T00:02:49.447Z,992.77
2018-04-05T00:03:49.468Z,992.73
2018-04-05T00:04:49.412Z,992.72
2018-04-05T00:05:49.385Z,992.73
2018-04-05T00:06:49.378Z,992.72
2018-04-05T00:07:49.372Z,992.73
2018-04-05T00:08:49.339Z,992.69
2018-04-05T00:09:49.310Z,992.67
2018-04-05T00:10:49.303Z,992.74
2018-04-05T00:11:49.329Z,992.76
2018-04-05T00:12:49.262Z,992.73
2018-04-05T00:13:49.246Z,992.75
2018-04-05T00:14:49.230Z,992.71
2018-04-05T00:15:49.224Z,992.69
2018-04-05T00:16:49.214Z,992.72
2018-04-05T00:17:49.176Z,992.71
2018-04-05T00:18:49.165Z,992.69
2018-04-05T00:19:49.173Z,992.73
2018-04-05T00:20:49.147Z,992.67
2018-04-05T00:21:49.156Z,992.68
2018-04-05T00:22:49.115Z,992.66
2018-04-05T00:23:49.108Z,992.77
2018-04-05T00:24:49.075Z,992.71
2018-04-05T00:25:49.057Z,992.73
2018-04-05T00:26:49.054Z,992.72
2018-04-05T00:27:49.013Z,992.75
2018-04-05T00:28:49.005Z,992.77
2018-04-05T00:29:49.003Z,992.78
2018-04-05T00:30:48.998Z,992.79
2018-04-05T00:31:48.946Z,992.79
2018-04-05T00:32:48.941Z,992.78
2018-04-05T00:33:48.937Z,992.86
2018-04-05T00:34:48.902Z,992.88
2018-04-05T00:35:48.880Z,992.92
2018-04-05T00:36:48.878Z,992.88
2018-04-05T00:37:48.857Z,992.91
2018-04-05T00:38:48.864Z,992.93
2018-04-05T00:39:48.823Z,992.95
2018-04-05T00:40:48.804Z,992.88
2018-04-05T00:41:48.794Z,992.92
2018-04-05T00:42:48.784Z,992.93
2018-04-05T00:43:48.750Z,992.94
2018-04-05T00:44:48.751Z,992.92
2018-04-05T00:45:48.730Z,992.93
2018-04-05T00:46:48.705Z,993.02
2018-04-05T00:47:48.699Z,992.97
2018-04-05T00:48:48.667Z,992.98
2018-04-05T00:49:48.654Z,992.98
2018-04-05T00:50:48.638Z,992.95
2018-04-05T00:51:48.683Z,993.03
2018-04-05T00:52:48.675Z,993.01
2018-04-05T00:53:48.599Z,993.01
2018-04-05T00:54:48.567Z,992.97
2018-04-05T00:55:48.577Z,993.02
2018-04-05T00:56:48.582Z,993.01
2018-04-05T00:57:48.551Z,993.00
2018-04-05T00:58:48.508Z,993.00
2018-04-05T00:59:48.502Z,993.01
2018-04-05T01:00:48.488Z,993.00
2018-04-05T01:01:48.449Z,993.01
2018-04-05T01:02:48.453Z,993.09
2018-04-05T01:03:48.424Z,993.06
2018-04-05T01:04:48.421Z,993.07
2018-04-05T01:05:48.384Z,993.06
2018-04-05T01:06:48.366Z,993.06
2018-04-05T01:07:48.351Z,993.07
2018-04-05T01:08:48.351Z,993.06
2018-04-05T01:09:48.317Z,993.13
2018-04-05T01:10:48.299Z,993.15
2018-04-05T01:11:48.295Z,993.13
2018-04-05T01:12:48.293Z,993.10
2018-04-05T01:13:48.274Z,993.11
2018-04-05T01:14:48.230Z,993.15
2018-04-05T01:15:48.212Z,993.14
2018-04-05T01:16:48.281Z,993.11
2018-04-05T01:17:48.203Z,993.15
2018-04-05T01:18:48.244Z,993.16
2018-04-05T01:19:48.161Z,993.10
2018-04-05T01:20:48.139Z,993.14
2018-04-05T01:21:48.132Z,993.09
2018-04-05T01:22:48.121Z,993.14
2018-04-05T01:23:48.090Z,993.19
2018-04-05T01:24:48.059Z,993.14
2018-04-05T01:25:48.079Z,993.15
2018-04-05T01:26:48.046Z,993.18
2018-04-05T01:27:48.012Z,993.23
2018-04-05T01:28:47.999Z,993.18
2018-04-05T01:29:47.998Z,993.22
2018-04-05T01:30:47.994Z,993.22
2018-04-05T01:31:47.939Z,993.25
2018-04-05T01:32:48.034Z,993.24
2018-04-05T01:33:47.921Z,993.27
2018-04-05T01:34:47.913Z,993.28
2018-04-05T01:35:47.874Z,993.28
2018-04-05T01:36:47.856Z,993.29
2018-04-05T01:37:47.859Z,993.27
2018-04-05T01:38:47.854Z,993.27
2018-04-05T01:39:47.863Z,993.30
2018-04-05T01:40:47.784Z,993.25
2018-04-05T01:41:47.772Z,993.29
2018-04-05T01:42:47.790Z,993.26
2018-04-05T01:43:47.784Z,993.21
2018-04-05T01:44:47.716Z,993.24
2018-04-05T01:45:47.713Z,993.27
2018-04-05T01:46:47.703Z,993.23
2018-04-05T01:47:47.671Z,993.21
2018-04-05T01:48:47.652Z,993.27
2018-04-05T01:49:47.642Z,993.22
2018-04-05T01:50:47.627Z,993.27
2018-04-05T01:51:47.624Z,993.25
2018-04-05T01:52:47.586Z,993.17
2018-04-05T01:53:47.563Z,993.28
2018-04-05T01:54:47.652Z,993.26
2018-04-05T01:55:47.556Z,993.26
2018-04-05T01:56:47.582Z,993.28
2018-04-05T01:57:47.501Z,993.29
2018-04-05T01:58:47.496Z,993.20
2018-04-05T01:59:47.483Z,993.28
2018-04-05T02:00:47.461Z,993.27
2018-04-05T02:01:47.425Z,993.29
2018-04-05T02:02:47.460Z,993.26
2018-04-05T02:03:47.397Z,993.30
2018-04-05T02:04:47.386Z,993.28
2018-04-05T02:05:47.367Z,993.28
2018-04-05T02:06:47.338Z,993.32
2018-04-05T02:07:47.334Z,993.29
2018-04-05T02:08:47.333Z,993.33
2018-04-05T02:09:47.288Z,993.36
2018-04-05T02:10:47.278Z,993.38
2018-04-05T02:11:47.288Z,993.34
2018-04-05T02:12:47.258Z,993.34
2018-04-05T02:13:47.232Z,993.37
2018-04-05T02:14:47.202Z,993.37
2018-04-05T02:15:47.196Z,993.36
2018-04-05T02:16:47.192Z,993.35
2018-04-05T02:17:47.153Z,993.35
2018-04-05T02:18:47.142Z,993.38
2018-04-05T02:19:47.122Z,993.35
2018-04-05T02:20:47.125Z,993.36
2018-04-05T02:21:47.109Z,993.40
2018-04-05T02:22:47.077Z,993.43
2018-04-05T02:23:47.054Z,993.45
2018-04-05T02:24:47.039Z,993.41
2018-04-05T02:25:47.042Z,993.42
2018-04-05T02:26:47.002Z,993.41
2018-04-05T02:27:46.980Z,993.45
2018-04-05T02:28:46.970Z,993.46
2018-04-05T02:29:46.963Z,993.51
2018-04-05T02:30:46.937Z,993.48
2018-04-05T02:31:46.920Z,993.48
2018-04-05T02:32:46.925Z,993.45
2018-04-05T02:33:46.883Z,993.45
2018-04-05T02:34:46.883Z,993.42
2018-04-05T02:35:46.847Z,993.45
2018-04-05T02:36:46.830Z,993.44
2018-04-05T02:37:46.824Z,993.44
2018-04-05T02:38:46.811Z,993.45
2018-04-05T02:39:46.785Z,993.46
2018-04-05T02:40:46.767Z,993.49
2018-04-05T02:41:46.753Z,993.50
2018-04-05T02:42:46.737Z,993.48
2018-04-05T02:43:46.712Z,993.51
2018-04-05T02:44:46.699Z,993.46
2018-04-05T02:45:46.684Z,993.40
2018-04-05T02:46:46.678Z,993.41
2018-04-05T02:47:46.656Z,993.46
2018-04-05T02:48:46.632Z,993.39
2018-04-05T02:49:46.610Z,993.43
2018-04-05T02:50:46.607Z,993.37
2018-04-05T02:51:46.654Z,993.35
2018-04-05T02:52:46.596Z,993.40
2018-04-05T02:53:46.550Z,993.40
2018-04-05T02:54:46.523Z,993.44
2018-04-05T02:55:46.533Z,993.46
2018-04-05T02:56:46.525Z,993.43
2018-04-05T02:57:46.489Z,993.45
2018-04-05T02:58:46.460Z,993.40
2018-04-05T02:59:46.457Z,993.44
2018-04-05T03:00:46.440Z,993.42
2018-04-05T03:01:46.423Z,993.49
2018-04-05T03:02:46.405Z,993.44
2018-04-05T03:03:46.404Z,993.49
2018-04-05T03:04:46.362Z,993.46
2018-04-05T03:05:46.376Z,993.49
2018-04-05T03:06:46.346Z,993.50
2018-04-05T03:07:46.310Z,993.48
2018-04-05T03:08:46.298Z,993.52
2018-04-05T03:09:46.269Z,993.49
2018-04-05T03:10:46.260Z,993.41
2018-04-05T03:11:46.242Z,993.39
2018-04-05T03:12:46.237Z,993.42
2018-04-05T03:13:46.225Z,993.48
2018-04-05T03:14:46.234Z,993.47
2018-04-05T03:15:46.184Z,993.49
2018-04-05T03:16:46.174Z,993.45
2018-04-05T03:17:46.169Z,993.49
2018-04-05T03:18:46.126Z,993.53
2018-04-05T03:19:46.109Z,993.48
2018-04-05T03:20:46.112Z,993.47
2018-04-05T03:21:46.099Z,993.48
2018-04-05T03:22:46.058Z,993.50
2018-04-05T03:23:46.041Z,993.55
2018-04-05T03:24:46.032Z,993.51
2018-04-05T03:25:46.024Z,993.55
2018-04-05T03:26:46.053Z,993.58
2018-04-05T03:27:45.977Z,993.58
2018-04-05T03:28:45.965Z,993.63
2018-04-05T03:29:45.945Z,993.66
2018-04-05T03:30:45.939Z,993.72
2018-04-05T03:31:45.914Z,993.72
2018-04-05T03:32:45.895Z,993.71
2018-04-05T03:33:45.910Z,993.72
2018-04-05T03:34:45.863Z,993.73
2018-04-05T03:35:45.835Z,993.71
2018-04-05T03:36:45.816Z,993.78
2018-04-05T03:37:45.807Z,993.75
2018-04-05T03:38:45.812Z,993.75
2018-04-05T03:39:45.773Z,993.76
2018-04-05T03:40:45.748Z,993.77
2018-04-05T03:41:45.733Z,993.74
2018-04-05T03:42:45.726Z,993.77
2018-04-05T03:43:45.698Z,993.75
2018-04-05T03:44:45.683Z,993.88
2018-04-05T03:45:45.665Z,993.81
2018-04-05T03:46:45.663Z,993.83
2018-04-05T03:47:45.650Z,993.90
2018-04-05T03:48:45.632Z,993.85
2018-04-05T03:49:45.598Z,993.87
2018-04-05T03:50:45.607Z,993.91
2018-04-05T03:51:45.634Z,993.85
2018-04-05T03:52:45.579Z,993.89
2018-04-05T03:53:45.531Z,993.89
2018-04-05T03:54:45.524Z,993.82
2018-04-05T03:55:45.523Z,993.81
2018-04-05T03:56:45.482Z,993.87
2018-04-05T03:57:45.471Z,993.85
2018-04-05T03:58:45.458Z,993.79
2018-04-05T03:59:45.449Z,993.85
2018-04-05T04:00:45.450Z,993.87
2018-04-05T04:01:45.403Z,993.89
2018-04-05T04:02:45.378Z,993.85
2018-04-05T04:03:45.375Z,993.85
2018-04-05T04:04:45.355Z,993.89
2018-04-05T04:05:45.361Z,993.88
2018-04-05T04:06:45.312Z,993.88
2018-04-05T04:07:45.296Z,993.90
2018-04-05T04:08:45.302Z,993.94
2018-04-05T04:09:45.292Z,993.96
2018-04-05T04:10:45.300Z,993.93
2018-04-05T04:11:45.300Z,993.93
2018-04-05T04:12:45.236Z,993.95
2018-04-05T04:13:45.226Z,993.95
2018-04-05T04:14:45.183Z,993.94
2018-04-05T04:15:45.165Z,993.99
2018-04-05T04:16:45.149Z,994.00
2018-04-05T04:17:45.153Z,993.97
2018-04-05T04:18:45.109Z,993.95
2018-04-05T04:19:45.089Z,994.00
2018-04-05T04:20:45.098Z,993.96
2018-04-05T04:21:45.075Z,993.97
2018-04-05T04:22:45.045Z,994.04
2018-04-05T04:23:45.023Z,994.03
2018-04-05T04:24:45.010Z,994.03
2018-04-05T04:25:45.027Z,994.07
2018-04-05T04:26:45.002Z,994.08
2018-04-05T04:27:44.965Z,994.01
2018-04-05T04:28:44.946Z,994.08
2018-04-05T04:29:44.932Z,994.09
2018-04-05T04:30:44.928Z,994.05
2018-04-05T04:31:44.886Z,994.10
2018-04-05T04:32:44.881Z,994.11
2018-04-05T04:33:44.879Z,994.04
2018-04-05T04:34:44.855Z,994.11
2018-04-05T04:35:44.829Z,994.10
2018-04-05T04:36:44.887Z,994.10
2018-04-05T04:37:44.793Z,994.13
2018-04-05T04:38:44.784Z,994.15
2018-04-05T04:39:44.779Z,994.14
2018-04-05T04:40:44.745Z,994.13
2018-04-05T04:41:44.721Z,994.17
2018-04-05T04:42:44.734Z,994.12
2018-04-05T04:43:44.763Z,994.13
2018-04-05T04:44:44.677Z,994.14
2018-04-05T04:45:44.780Z,994.19
2018-04-05T04:46:44.669Z,994.22
2018-04-05T04:47:44.650Z,994.22
2018-04-05T04:48:44.642Z,994.21
2018-04-05T04:49:44.590Z,994.20
2018-04-05T04:50:44.594Z,994.20
2018-04-05T04:51:44.584Z,994.24
2018-04-05T04:52:44.564Z,994.17
2018-04-05T04:53:44.520Z,994.19
2018-04-05T04:54:44.511Z,994.25
2018-04-05T04:55:44.504Z,994.17
2018-04-05T04:56:44.496Z,994.21
2018-04-05T04:57:44.478Z,994.21
2018-04-05T04:58:44.440Z,994.28
2018-04-05T04:59:44.429Z,994.26
2018-04-05T05:00:44.415Z,994.26
2018-04-05T05:01:44.419Z,994.36
2018-04-05T05:02:44.379Z,994.29
2018-04-05T05:03:44.349Z,994.36
2018-04-05T05:04:44.357Z,994.33
2018-04-05T05:05:44.338Z,994.34
2018-04-05T05:06:44.302Z,994.38
2018-04-05T05:07:44.288Z,994.31
2018-04-05T05:08:44.284Z,994.38
2018-04-05T05:09:44.283Z,994.41
2018-04-05T05:10:44.270Z,994.41
2018-04-05T05:11:44.235Z,994.50
2018-04-05T05:12:44.223Z,994.43
2018-04-05T05:13:44.219Z,994.51
2018-04-05T05:14:44.173Z,994.46
2018-04-05T05:15:44.163Z,994.53
2018-04-05T05:16:44.143Z,994.51
2018-04-05T05:17:44.137Z,994.54
2018-04-05T05:18:44.184Z,994.54
2018-04-05T05:19:44.133Z,994.61
2018-04-05T05:20:44.103Z,994.63
2018-04-05T05:21:44.092Z,994.64
2018-04-05T05:22:44.093Z,994.58
2018-04-05T05:23:44.035Z,994.65
2018-04-05T05:24:44.014Z,994.69
2018-04-05T05:25:43.998Z,994.69
2018-04-05T05:26:43.988Z,994.67
2018-04-05T05:27:43.983Z,994.63
2018-04-05T05:28:44.001Z,994.61
2018-04-05T05:29:43.934Z,994.67
2018-04-05T05:30:43.925Z,994.65
2018-04-05T05:31:43.938Z,994.70
2018-04-05T05:32:43.883Z,994.64
2018-04-05T05:33:43.869Z,994.69
2018-04-05T05:34:43.851Z,994.67
2018-04-05T05:35:43.849Z,994.73
2018-04-05T05:36:43.795Z,994.74
2018-04-05T05:37:43.789Z,994.72
2018-04-05T05:38:43.791Z,994.73
2018-04-05T05:39:43.758Z,994.82
2018-04-05T05:40:43.738Z,994.79
2018-04-05T05:41:43.759Z,994.81
2018-04-05T05:42:43.748Z,994.81
2018-04-05T05:43:43.693Z,994.84
2018-04-05T05:44:43.663Z,994.87
2018-04-05T05:45:43.652Z,994.88
2018-04-05T05:46:43.679Z,994.87
2018-04-05T05:47:43.635Z,994.88
2018-04-05T05:48:43.611Z,994.93
2018-04-05T05:49:43.614Z,994.92
2018-04-05T05:50:43.575Z,994.87
2018-04-05T05:51:43.611Z,994.90
2018-04-05T05:52:43.548Z,994.99
2018-04-05T05:53:43.530Z,995.01
2018-04-05T05:54:43.514Z,995.02
2018-04-05T05:55:43.489Z,995.07
2018-04-05T05:56:43.504Z,995.00
2018-04-05T05:57:46.529Z,995.04
2018-04-05T05:58:43.505Z,995.03
2018-04-05T05:59:43.447Z,995.04
2018-04-05T06:00:43.436Z,995.06
2018-04-05T06:01:43.407Z,995.00
2018-04-05T06:02:43.355Z,995.05
2018-04-05T06:03:43.331Z,995.01
2018-04-05T06:04:43.337Z,995.05
2018-04-05T06:05:43.340Z,995.04
2018-04-05T06:06:43.302Z,995.10
2018-04-05T06:07:43.275Z,995.11
2018-04-05T06:08:43.269Z,995.08
2018-04-05T06:09:43.271Z,995.03
2018-04-05T06:10:43.228Z,995.03
2018-04-05T06:11:43.248Z,995.10
2018-04-05T06:12:43.208Z,995.06
2018-04-05T06:13:43.282Z,995.08
2018-04-05T06:14:43.191Z,995.05
2018-04-05T06:15:43.159Z,995.11
2018-04-05T06:16:43.119Z,995.09
2018-04-05T06:17:43.131Z,995.11
2018-04-05T06:18:43.104Z,995.10
2018-04-05T06:19:43.082Z,995.14
2018-04-05T06:20:43.055Z,995.14
2018-04-05T06:21:43.041Z,995.24
2018-04-05T06:22:43.060Z,995.07
2018-04-05T06:23:43.057Z,995.13
2018-04-05T06:24:42.987Z,995.12
2018-04-05T06:25:42.980Z,995.08
2018-04-05T06:26:42.980Z,995.18
2018-04-05T06:27:42.945Z,995.19
2018-04-05T06:28:42.958Z,995.17
2018-04-05T06:29:42.912Z,995.23
2018-04-05T06:30:42.934Z,995.27
2018-04-05T06:31:42.877Z,995.25
2018-04-05T06:32:42.900Z,995.24
2018-04-05T06:33:42.896Z,995.22
2018-04-05T06:34:42.838Z,995.29
2018-04-05T06:35:42.845Z,995.25
2018-04-05T06:36:42.805Z,995.27
2018-04-05T06:37:42.826Z,995.27
2018-04-05T06:38:42.766Z,995.29
2018-04-05T06:39:42.793Z,995.35
2018-04-05T06:40:42.755Z,995.34
2018-04-05T06:41:42.732Z,995.32
2018-04-05T06:42:42.685Z,995.39
2018-04-05T06:43:42.718Z,995.37
2018-04-05T06:44:42.693Z,995.42
2018-04-05T06:45:42.695Z,995.50
2018-04-05T06:46:42.623Z,995.40
2018-04-05T06:47:42.688Z,995.47
2018-04-05T06:48:42.619Z,995.49
2018-04-05T06:49:42.619Z,995.59
2018-04-05T06:50:42.557Z,995.54
2018-04-05T06:51:42.541Z,995.50
2018-04-05T06:52:42.540Z,995.56
2018-04-05T06:53:42.501Z,995.58
2018-04-05T06:54:42.489Z,995.63
2018-04-05T06:55:42.477Z,995.63
2018-04-05T06:56:42.497Z,995.70
2018-04-05T06:57:42.467Z,995.88
2018-04-05T06:58:42.418Z,995.89
2018-04-05T06:59:42.447Z,995.92
2018-04-05T07:00:42.395Z,995.87
2018-04-05T07:01:42.435Z,995.97
2018-04-05T07:02:42.375Z,996.02
2018-04-05T07:03:42.378Z,996.06
2018-04-05T07:04:42.344Z,996.11
2018-04-05T07:05:42.322Z,996.13
2018-04-05T07:06:42.314Z,996.18
2018-04-05T07:07:42.347Z,996.17
2018-04-05T07:08:42.276Z,996.20
2018-04-05T07:09:42.257Z,996.28
2018-04-05T07:10:42.255Z,996.25
2018-04-05T07:11:42.216Z,996.28
2018-04-05T07:12:42.228Z,996.20
2018-04-05T07:13:42.182Z,996.22
2018-04-05T07:14:42.194Z,996.31
2018-04-05T07:15:42.140Z,996.35
2018-04-05T07:16:42.130Z,996.35
2018-04-05T07:17:42.116Z,996.41
2018-04-05T07:18:42.088Z,996.42
2018-04-05T07:19:42.073Z,996.48
2018-04-05T07:20:42.084Z,996.43
2018-04-05T07:21:42.071Z,996.43
2018-04-05T07:22:42.068Z,996.44
2018-04-05T07:23:42.039Z,996.51
2018-04-05T07:24:41.992Z,996.60
2018-04-05T07:25:41.972Z,996.56
2018-04-05T07:26:41.971Z,996.61
2018-04-05T07:27:41.973Z,996.62
2018-04-05T07:28:41.927Z,996.67
2018-04-05T07:29:41.896Z,996.68
2018-04-05T07:30:41.907Z,996.72
2018-04-05T07:31:41.871Z,996.75
2018-04-05T07:32:41.866Z,996.82
2018-04-05T07:33:41.827Z,996.79
2018-04-05T07:34:41.810Z,996.82
2018-04-05T07:35:41.829Z,996.85
2018-04-05T07:36:41.847Z,996.83
2018-04-05T07:37:41.795Z,996.90
2018-04-05T07:38:41.742Z,996.94
2018-04-05T07:39:41.724Z,996.95
2018-04-05T07:40:41.729Z,996.93
2018-04-05T07:41:41.697Z,996.93
2018-04-05T07:42:41.678Z,996.96
2018-04-05T07:43:41.689Z,996.99
2018-04-05T07:44:41.650Z,996.96
2018-04-05T07:45:41.625Z,996.91
2018-04-05T07:46:41.606Z,997.00
2018-04-05T07:47:41.658Z,996.98
2018-04-05T07:48:41.603Z,996.98
2018-04-05T07:49:41.569Z,997.05
2018-04-05T07:50:41.531Z,997.12
2018-04-05T07:51:41.525Z,997.14
2018-04-05T07:52:41.531Z,997.20
2018-04-05T07:53:41.478Z,997.20
2018-04-05T07:54:41.459Z,997.18
2018-04-05T07:55:41.453Z,997.18
2018-04-05T07:56:41.425Z,997.20
2018-04-05T07:57:41.446Z,997.29
2018-04-05T07:58:41.411Z,997.21
2018-04-05T07:59:41.376Z,997.26
2018-04-05T08:00:41.388Z,997.29
2018-04-05T08:01:41.397Z,997.27
2018-04-05T08:02:41.317Z,997.31
2018-04-05T08:03:41.347Z,997.35
2018-04-05T08:04:41.314Z,997.33
2018-04-05T08:05:41.331Z,997.38
2018-04-05T08:06:41.259Z,997.38
2018-04-05T08:07:41.260Z,997.45
2018-04-05T08:08:41.260Z,997.50
2018-04-05T08:09:41.221Z,997.45
2018-04-05T08:10:41.190Z,997.43
2018-04-05T08:11:41.161Z,997.56
2018-04-05T08:12:41.199Z,997.47
2018-04-05T08:13:41.182Z,997.55
2018-04-05T08:14:41.139Z,997.55
2018-04-05T08:15:41.134Z,997.49
2018-04-05T08:16:41.130Z,997.60
2018-04-05T08:17:41.073Z,997.57
2018-04-05T08:18:41.068Z,997.55
2018-04-05T08:19:41.075Z,997.58
2018-04-05T08:20:41.082Z,997.55
2018-04-05T08:21:41.094Z,997.57
2018-04-05T08:22:41.168Z,997.62
2018-04-05T08:23:41.004Z,997.67
2018-04-05T08:24:40.966Z,997.65
2018-04-05T08:25:40.960Z,997.66
2018-04-05T08:26:40.934Z,997.66
2018-04-05T08:27:40.913Z,997.76
2018-04-05T08:28:40.893Z,997.82
2018-04-05T08:29:40.868Z,997.77
2018-04-05T08:30:40.849Z,997.81
2018-04-05T08:31:40.837Z,997.84
2018-04-05T08:32:40.815Z,997.91
2018-04-05T08:33:40.873Z,997.91
2018-04-05T08:34:40.783Z,997.93
2018-04-05T08:35:40.799Z,997.88
2018-04-05T08:36:40.759Z,998.05
2018-04-05T08:37:40.722Z,998.03
2018-04-05T08:38:40.730Z,998.03
2018-04-05T08:39:40.694Z,998.13
2018-04-05T08:40:40.710Z,998.17
2018-04-05T08:41:40.846Z,998.09
2018-04-05T08:42:40.697Z,998.21
2018-04-05T08:43:40.671Z,998.32
2018-04-05T08:44:40.590Z,998.24
2018-04-05T08:45:40.588Z,998.23
2018-04-05T08:46:40.587Z,998.35
2018-04-05T08:47:40.820Z,998.31
2018-04-05T08:48:40.555Z,998.32
2018-04-05T08:49:40.518Z,998.25
2018-04-05T08:50:40.637Z,998.34
2018-04-05T08:51:40.491Z,998.45
2018-04-05T08:52:40.540Z,998.33
2018-04-05T08:53:40.669Z,998.38
2018-04-05T08:54:40.526Z,998.42
2018-04-05T08:55:40.450Z,998.46
2018-04-05T08:56:41.027Z,998.52
2018-04-05T08:57:40.468Z,998.50
2018-04-05T08:58:40.473Z,998.51
2018-04-05T08:59:40.396Z,998.58
2018-04-05T09:00:40.422Z,998.53
2018-04-05T09:01:40.362Z,998.55
2018-04-05T09:02:40.328Z,998.57
2018-04-05T09:03:40.313Z,998.63
2018-04-05T09:04:40.297Z,998.66
2018-04-05T09:05:40.259Z,998.66
2018-04-05T09:06:40.280Z,998.63
2018-04-05T09:07:40.358Z,998.53
2018-04-05T09:08:40.207Z,998.65
2018-04-05T09:09:40.187Z,998.62
2018-04-05T09:10:40.204Z,998.64
2018-04-05T09:11:40.215Z,998.69
2018-04-05T09:12:40.146Z,998.74
2018-04-05T09:13:40.131Z,998.80
2018-04-05T09:14:40.148Z,998.83
2018-04-05T09:15:40.090Z,998.74
2018-04-05T09:16:40.078Z,998.73
2018-04-05T09:17:40.115Z,998.70
2018-04-05T09:18:40.020Z,998.81
2018-04-05T09:19:40.025Z,998.75
2018-04-05T09:20:40.077Z,998.85
2018-04-05T09:21:40.036Z,998.80
2018-04-05T09:22:40.076Z,998.78
2018-04-05T09:23:40.884Z,998.85
2018-04-05T09:24:39.963Z,998.76
2018-04-05T09:25:40.041Z,998.81
2018-04-05T09:26:39.989Z,998.82
2018-04-05T09:27:39.875Z,998.86
2018-04-05T09:28:39.877Z,998.88
2018-04-05T09:29:39.919Z,998.93
2018-04-05T09:30:39.979Z,998.99
2018-04-05T09:31:39.863Z,999.00
2018-04-05T09:32:40.445Z,999.01
2018-04-05T09:33:40.439Z,999.04
2018-04-05T09:34:39.781Z,999.06
2018-04-05T09:35:39.780Z,999.06
2018-04-05T09:36:39.768Z,999.09
2018-04-05T09:37:39.767Z,999.06
2018-04-05T09:38:39.728Z,999.00
2018-04-05T09:39:39.775Z,999.10
2018-04-05T09:40:39.751Z,999.09
2018-04-05T09:41:39.685Z,999.32
2018-04-05T09:42:39.675Z,999.27
2018-04-05T09:43:39.661Z,999.30
2018-04-05T09:44:39.675Z,999.39
2018-04-05T09:45:39.623Z,999.40
2018-04-05T09:46:39.624Z,999.36
2018-04-05T09:47:39.623Z,999.45
2018-04-05T09:48:39.666Z,999.56
2018-04-05T09:49:39.563Z,999.53
2018-04-05T09:50:39.564Z,999.48
2018-04-05T09:51:39.530Z,999.59
2018-04-05T09:52:39.486Z,999.59
2018-04-05T09:53:39.493Z,999.59
2018-04-05T09:54:39.472Z,999.64
2018-04-05T09:55:39.580Z,999.71
2018-04-05T09:56:39.497Z,999.74
2018-04-05T09:57:39.436Z,999.78
2018-04-05T09:58:39.519Z,999.67
2018-04-05T09:59:39.418Z,999.79
2018-04-05T10:00:39.378Z,999.83
2018-04-05T10:01:39.406Z,999.78
2018-04-05T10:02:39.343Z,999.90
2018-04-05T10:03:39.348Z,999.91
2018-04-05T10:04:39.349Z,999.90
2018-04-05T10:05:39.334Z,1000.00
2018-04-05T10:06:39.281Z,999.95
2018-04-05T10:07:39.288Z,1000.00
2018-04-05T10:08:39.299Z,999.96
2018-04-05T10:09:39.276Z,999.77
2018-04-05T10:10:39.419Z,999.93
2018-04-05T10:11:39.413Z,1000.00
2018-04-05T10:12:39.208Z,1000.03
2018-04-05T10:13:39.160Z,999.90
2018-04-05T10:14:39.171Z,999.98
2018-04-05T10:15:39.108Z,999.89
2018-04-05T10:16:39.129Z,999.93
2018-04-05T10:17:39.321Z,1000.10
2018-04-05T10:18:39.433Z,1000.04
2018-04-05T10:19:39.278Z,1000.12
2018-04-05T10:20:39.211Z,1000.15
2018-04-05T10:21:39.056Z,1000.16
2018-04-05T10:22:39.073Z,1000.12
2018-04-05T10:23:39.054Z,1000.20
2018-04-05T10:24:38.964Z,1000.37
2018-04-05T10:25:39.005Z,1000.18
2018-04-05T10:26:38.979Z,999.98
2018-04-05T10:27:40.494Z,1000.18
2018-04-05T10:28:39.018Z,1000.28
2018-04-05T10:29:38.901Z,1000.22
2018-04-05T10:30:38.883Z,1000.26
2018-04-05T10:31:38.874Z,1000.33
2018-04-05T10:32:38.889Z,1000.25
2018-04-05T10:33:38.876Z,1000.34
2018-04-05T10:34:38.818Z,1000.39
2018-04-05T10:35:38.818Z,1000.44
2018-04-05T10:36:38.774Z,1000.48
2018-04-05T10:37:38.769Z,1000.49
2018-04-05T10:38:38.787Z,1000.47
2018-04-05T10:39:38.750Z,1000.59
2018-04-05T10:40:38.711Z,1000.52
2018-04-05T10:41:38.695Z,1000.60
2018-04-05T10:42:38.713Z,1000.51
2018-04-05T10:43:38.701Z,1000.55
2018-04-05T10:44:38.858Z,1000.61
2018-04-05T10:45:38.663Z,1000.57
2018-04-05T10:46:38.668Z,1000.61
2018-04-05T10:47:38.634Z,1000.68
2018-04-05T10:48:38.606Z,1000.59
2018-04-05T10:49:38.573Z,1000.70
2018-04-05T10:50:38.553Z,1000.62
2018-04-05T10:51:38.534Z,1000.61
2018-04-05T10:52:38.575Z,1000.77
2018-04-05T10:53:38.501Z,1000.63
2018-04-05T10:54:39.015Z,1000.71
2018-04-05T10:55:38.519Z,1000.68
2018-04-05T10:56:38.525Z,1000.74
2018-04-05T10:57:38.461Z,1000.67
2018-04-05T10:58:38.470Z,1000.81
2018-04-05T10:59:38.431Z,1000.76
2018-04-05T11:00:38.504Z,1000.71
2018-04-05T11:01:38.436Z,1000.82
2018-04-05T11:02:38.384Z,1000.90
2018-04-05T11:03:38.368Z,1000.87
2018-04-05T11:04:38.363Z,1001.01
2018-04-05T11:05:38.337Z,1001.00
2018-04-05T11:06:38.295Z,1000.99
2018-04-05T11:07:38.403Z,1001.11
2018-04-05T11:08:38.268Z,1001.04
2018-04-05T11:09:38.266Z,1001.06
2018-04-05T11:10:38.269Z,1001.10
2018-04-05T11:11:38.355Z,1001.20
2018-04-05T11:12:38.227Z,1001.16
2018-04-05T11:13:38.228Z,1001.32
2018-04-05T11:14:38.242Z,1001.12
2018-04-05T11:15:38.208Z,1001.25
2018-04-05T11:16:38.180Z,1001.24
2018-04-05T11:17:38.168Z,1001.32
2018-04-05T11:18:38.130Z,1001.32
2018-04-05T11:19:38.112Z,1001.33
2018-04-05T11:20:38.106Z,1001.38
2018-04-05T11:21:38.085Z,1001.42
2018-04-05T11:22:38.127Z,1001.47
2018-04-05T11:23:38.107Z,1001.45
2018-04-05T11:24:38.106Z,1001.56
2018-04-05T11:25:38.043Z,1001.71
2018-04-05T11:26:38.022Z,1001.66
2018-04-05T11:27:38.111Z,1001.61
2018-04-05T11:28:37.967Z,1001.73
2018-04-05T11:29:37.972Z,1001.70
2018-04-05T11:30:37.944Z,1001.80
2018-04-05T11:31:37.956Z,1001.77
2018-04-05T11:32:38.184Z,1001.83
2018-04-05T11:33:37.940Z,1001.87
2018-04-05T11:34:37.878Z,1001.94
2018-04-05T11:35:38.000Z,1001.89
2018-04-05T11:36:38.307Z,1001.88
2018-04-05T11:37:37.883Z,1002.07
2018-04-05T11:38:37.818Z,1002.03
2018-04-05T11:39:37.804Z,1002.13
2018-04-05T11:40:38.313Z,1002.08
2018-04-05T11:41:37.811Z,1002.15
2018-04-05T11:42:38.034Z,1002.22
2018-04-05T11:43:37.955Z,1002.35
2018-04-05T11:44:38.109Z,1002.16
2018-04-05T11:45:37.897Z,1002.23
2018-04-05T11:46:37.763Z,1002.27
2018-04-05T11:47:37.812Z,1002.17
2018-04-05T11:48:37.715Z,1002.31
2018-04-05T11:49:37.796Z,1002.35
2018-04-05T11:50:37.681Z,1002.37
2018-04-05T11:51:37.664Z,1002.31
2018-04-05T11:52:37.585Z,1002.48
2018-04-05T11:53:37.691Z,1002.45
2018-04-05T11:54:37.573Z,1002.39
2018-04-05T11:55:37.549Z,1002.52
2018-04-05T11:56:37.567Z,1002.45
2018-04-05T11:57:38.414Z,1002.52
2018-04-05T11:58:37.506Z,1002.44
2018-04-05T11:59:37.592Z,1002.61
2018-04-05T12:00:37.538Z,1002.59
2018-04-05T12:01:37.525Z,1002.67
2018-04-05T12:02:37.757Z,1002.73
2018-04-05T12:03:37.608Z,1002.83
2018-04-05T12:04:37.635Z,1002.62
2018-04-05T12:05:37.447Z,1002.77
2018-04-05T12:06:37.404Z,1002.86
2018-04-05T12:07:37.381Z,1002.91
2018-04-05T12:08:37.471Z,1002.95
2018-04-05T12:09:37.346Z,1002.99
2018-04-05T12:10:37.581Z,1002.97
2018-04-05T12:11:37.331Z,1003.02
2018-04-05T12:12:37.472Z,1003.07
2018-04-05T12:13:37.589Z,1003.11
2018-04-05T12:14:37.310Z,1003.13
2018-04-05T12:15:37.316Z,1003.15
2018-04-05T12:16:37.229Z,1003.16
2018-04-05T12:17:37.247Z,1003.28
2018-04-05T12:18:37.401Z,1003.36
2018-04-05T12:19:37.645Z,1003.37
2018-04-05T12:20:37.778Z,1003.38
2018-04-05T12:21:37.382Z,1003.27
2018-04-05T12:22:37.339Z,1003.30
2018-04-05T12:23:37.074Z,1003.45
2018-04-05T12:24:37.086Z,1003.28